Time;durP1;ratioP1;P1;durP2;ratioP2;P2;SDS_P1;SDS_P2;PMS_P1;PMS_P2;Temp;Humidity;BMP_temperature;BMP_pressure;BME280_temperature;BME280_humidity;BME280_pressure;Samples;Min_cycle;Max_cycle;Signal;HPM_P1;HPM_P2
2021/11/08 00:00:40;;;;;;;;;;;;;;;11.71;59.82;99888.94;4411861;32;20108;-87
2021/11/08 00:03:08;;;;;;;;;;;;;;;11.70;59.82;99880.25;4412016;32;19969;-86
2021/11/08 00:05:39;;;;;;;;;;;;;;;11.52;59.81;99873.06;4411738;32;19997;-86
2021/11/08 00:08:05;;;;;;;;;;;;;;;11.66;59.82;99874.31;4412580;32;20012;-86
2021/11/08 00:10:32;;;;;;;;;;;;;;;11.53;59.82;99882.56;4412117;32;20394;-87
2021/11/08 00:12:59;;;;;;;;;;;;;;;11.48;59.82;99887.09;4412442;32;19978;-87
2021/11/08 00:15:36;;;;;;;;;;;;;;;11.24;59.80;99891.38;4412217;32;20002;-86
2021/11/08 00:18:07;;;;;;;;;;;;;;;11.16;59.80;99875.12;4412880;32;19990;-87
2021/11/08 00:20:45;;;;;;;;;;;;;;;11.55;59.82;99829.47;4412330;32;20001;-88
2021/11/08 00:23:10;;;;;;;;;;;;;;;11.54;59.82;99845.19;4415534;32;19970;-88
2021/11/08 00:25:37;;;;;;;;;;;;;;;11.44;59.81;99844.66;4413640;32;20003;-88
2021/11/08 00:28:02;;;;;;;;;;;;;;;11.42;59.81;99848.22;4411348;32;20051;-88
2021/11/08 00:30:30;;;;;;;;;;;;;;;11.48;59.81;99868.84;4412208;32;19985;-87
2021/11/08 00:32:55;;;;;;;;;;;;;;;11.50;59.81;99875.72;4411318;32;19996;-88
2021/11/08 00:35:21;;;;;;;;;;;;;;;11.36;59.80;99857.94;4411571;32;19982;-85
2021/11/08 00:37:46;;;;;;;;;;;;;;;11.37;59.81;99851.84;4410928;32;25907;-87
2021/11/08 00:40:12;;;;;;;;;;;;;;;11.42;59.81;99829.97;4425715;32;20014;-88
2021/11/08 00:42:37;;;;;;;;;;;;;;;11.55;59.82;99847.72;4424599;32;20308;-87
2021/11/08 00:45:03;;;;;;;;;;;;;;;11.40;59.81;99855.25;4411535;32;20005;-88
2021/11/08 00:47:29;;;;;;;;;;;;;;;11.42;59.81;99861.25;4411390;32;19989;-88
2021/11/08 00:49:56;;;;;;;;;;;;;;;11.25;59.80;99860.03;4411834;32;21175;-87
2021/11/08 00:52:22;;;;;;;;;;;;;;;11.30;59.79;99850.31;4398977;32;20049;-88
2021/11/08 00:54:47;;;;;;;;;;;;;;;11.51;59.81;99863.53;4411525;32;19994;-87
2021/11/08 00:57:13;;;;;;;;;;;;;;;11.34;59.81;99870.16;4411994;32;20045;-86
2021/11/08 00:59:38;;;;;;;;;;;;;;;11.23;59.80;99872.28;4411865;32;19995;-88
2021/11/08 01:02:04;;;;;;;;;;;;;;;11.30;59.80;99883.34;4411158;32;20013;-88
2021/11/08 01:04:29;;;;;;;;;;;;;;;11.04;59.78;99892.84;4411368;32;20615;-88
2021/11/08 01:06:59;;;;;;;;;;;;;;;11.13;59.79;99893.47;4411326;32;19982;-88
2021/11/08 01:09:25;;;;;;;;;;;;;;;11.10;59.79;99889.19;4412143;32;19974;-86
2021/11/08 01:11:50;;;;;;;;;;;;;;;11.16;59.80;99886.41;4412247;32;20039;-88
2021/11/08 01:14:17;;;;;;;;;;;;;;;11.20;59.80;99898.44;4412178;32;20016;-87
2021/11/08 01:16:42;;;;;;;;;;;;;;;11.29;59.80;99895.53;4412107;32;19982;-88
2021/11/08 01:19:08;;;;;;;;;;;;;;;11.34;59.81;99869.31;4411891;32;20504;-88
2021/11/08 01:21:34;;;;;;;;;;;;;;;11.32;59.81;99868.50;4411452;32;19996;-88
2021/11/08 01:24:00;;;;;;;;;;;;;;;11.41;59.81;99875.19;4411908;32;20013;-88
2021/11/08 01:26:26;;;;;;;;;;;;;;;11.28;59.80;99870.38;4411831;32;20004;-86
2021/11/08 01:28:51;;;;;;;;;;;;;;;11.29;59.80;99874.66;4411907;32;19993;-88
2021/11/08 01:31:17;;;;;;;;;;;;;;;11.56;59.82;99882.47;4411759;32;20397;-88
2021/11/08 01:33:46;;;;;;;;;;;;;;;11.44;59.81;99875.94;4411360;32;20021;-87
2021/11/08 01:36:13;;;;;;;;;;;;;;;11.34;59.80;99862.34;4423130;32;19994;-87
2021/11/08 01:38:47;;;;;;;;;;;;;;;11.35;59.80;99876.22;4410301;32;19986;-85
2021/11/08 01:41:13;;;;;;;;;;;;;;;11.32;59.80;99878.94;4422337;32;20008;-85
2021/11/08 01:43:39;;;;;;;;;;;;;;;11.17;59.79;99849.03;4409051;32;20006;-85
2021/11/08 01:46:05;;;;;;;;;;;;;;;11.21;59.80;99849.78;4409268;32;20420;-85
2021/11/08 01:48:30;;;;;;;;;;;;;;;11.24;59.80;99863.56;4409107;32;19974;-85
2021/11/08 01:50:55;;;;;;;;;;;;;;;11.35;59.80;99869.25;4408971;32;20010;-84
2021/11/08 01:53:23;;;;;;;;;;;;;;;11.37;59.81;99875.28;4409101;32;20349;-85
2021/11/08 01:55:48;;;;;;;;;;;;;;;11.31;59.81;99880.69;4409277;32;20043;-85
2021/11/08 01:58:13;;;;;;;;;;;;;;;11.38;59.81;99897.84;4408792;32;20057;-85
2021/11/08 02:00:39;;;;;;;;;;;;;;;11.53;59.82;99891.25;4408778;32;20346;-85
2021/11/08 02:03:04;;;;;;;;;;;;;;;11.54;59.82;99889.50;4408671;32;20059;-84
2021/11/08 02:05:29;;;;;;;;;;;;;;;11.38;59.81;99874.38;4422111;32;20768;-85
2021/11/08 02:07:55;;;;;;;;;;;;;;;11.28;59.80;99866.91;4396151;32;20294;-87
2021/11/08 02:10:21;;;;;;;;;;;;;;;11.33;59.81;99854.56;4409813;32;20395;-86
2021/11/08 02:12:46;;;;;;;;;;;;;;;11.27;59.80;99853.03;4409053;32;20021;-86
2021/11/08 02:15:13;;;;;;;;;;;;;;;11.32;59.80;99842.44;4409008;32;19997;-85
2021/11/08 02:17:42;;;;;;;;;;;;;;;11.20;59.80;99850.69;4409262;32;20042;-85
2021/11/08 02:20:14;;;;;;;;;;;;;;;11.18;59.80;99855.09;4409737;32;19978;-85
2021/11/08 02:22:40;;;;;;;;;;;;;;;11.14;59.79;99863.91;4422040;32;20005;-84
2021/11/08 02:25:05;;;;;;;;;;;;;;;11.16;59.80;99860.34;4409097;32;20013;-85
2021/11/08 02:27:30;;;;;;;;;;;;;;;11.26;59.80;99842.66;4409143;32;20081;-85
2021/11/08 02:29:55;;;;;;;;;;;;;;;11.14;59.79;99851.75;4409503;32;19993;-86
2021/11/08 02:32:21;;;;;;;;;;;;;;;11.22;59.81;99854.94;4408718;32;20001;-86
2021/11/08 02:34:46;;;;;;;;;;;;;;;11.25;59.80;99867.88;4408648;32;20027;-85
2021/11/08 02:37:11;;;;;;;;;;;;;;;11.27;59.80;99881.69;4408690;32;26288;-85
2021/11/08 02:39:38;;;;;;;;;;;;;;;11.11;59.79;99883.06;4410000;32;20033;-87
2021/11/08 02:42:04;;;;;;;;;;;;;;;11.13;59.79;99870.03;4410558;32;20282;-87
2021/11/08 02:44:29;;;;;;;;;;;;;;;11.09;59.79;99858.84;4409459;32;19994;-85
2021/11/08 02:46:56;;;;;;;;;;;;;;;10.99;59.79;99878.28;4409396;32;19996;-85
2021/11/08 02:49:25;;;;;;;;;;;;;;;11.15;59.79;99889.91;4409342;32;19987;-87
2021/11/08 02:52:00;;;;;;;;;;;;;;;11.29;59.80;99887.69;4408938;32;20393;-85
2021/11/08 02:54:38;;;;;;;;;;;;;;;11.27;59.80;99902.53;4422958;32;19977;-84
2021/11/08 02:57:04;;;;;;;;;;;;;;;11.23;59.80;99918.31;4422922;32;20016;-85
2021/11/08 02:59:31;;;;;;;;;;;;;;;11.23;59.80;99927.00;4409014;32;19981;-86
2021/11/08 03:01:57;;;;;;;;;;;;;;;11.12;59.79;99908.25;4408873;32;20389;-86
2021/11/08 03:04:27;;;;;;;;;;;;;;;11.32;59.80;99894.56;4422540;32;19994;-85
2021/11/08 03:06:52;;;;;;;;;;;;;;;11.19;59.79;99877.63;4408677;32;20000;-84
2021/11/08 03:09:19;;;;;;;;;;;;;;;11.18;59.80;99855.94;4407625;32;29904;-85
2021/11/08 03:11:45;;;;;;;;;;;;;;;11.11;59.79;99866.59;4408252;32;20368;-85
2021/11/08 03:14:14;;;;;;;;;;;;;;;10.93;59.78;99909.72;4408405;32;20021;-85
2021/11/08 03:16:43;;;;;;;;;;;;;;;10.74;59.77;99922.44;4397296;32;19978;-87
2021/11/08 03:21:43;;;;;;;;;;;;;;;10.72;59.77;99917.28;4412958;32;19994;-87
2021/11/08 03:24:12;;;;;;;;;;;;;;;10.75;59.77;99909.37;4411725;32;20038;-85
2021/11/08 03:26:47;;;;;;;;;;;;;;;10.86;59.78;99909.03;4411894;32;19996;-87
2021/11/08 03:29:12;;;;;;;;;;;;;;;10.80;59.77;99918.81;4412627;32;19990;-86
2021/11/08 03:31:39;;;;;;;;;;;;;;;10.79;59.78;99906.69;4411449;32;20040;-86
2021/11/08 03:34:07;;;;;;;;;;;;;;;10.81;59.78;99912.69;4386878;32;809720;-87
2021/11/08 03:36:32;;;;;;;;;;;;;;;10.75;59.77;99922.41;4411193;32;19974;-84
2021/11/08 03:38:58;;;;;;;;;;;;;;;10.73;59.77;99913.78;4423990;32;20049;-86
2021/11/08 03:41:23;;;;;;;;;;;;;;;10.73;59.77;99921.59;4410501;32;19993;-85
2021/11/08 03:43:49;;;;;;;;;;;;;;;10.77;59.78;99920.59;4423044;32;20031;-85
2021/11/08 03:46:14;;;;;;;;;;;;;;;10.92;59.79;99908.03;4410403;32;20016;-86
2021/11/08 03:48:39;;;;;;;;;;;;;;;10.78;59.78;99913.62;4424121;32;20023;-86
2021/11/08 03:51:04;;;;;;;;;;;;;;;10.84;59.77;99913.44;4411415;32;20000;-87
2021/11/08 03:53:30;;;;;;;;;;;;;;;10.90;59.78;99923.69;4412183;32;20285;-87
2021/11/08 03:55:55;;;;;;;;;;;;;;;10.84;59.79;99936.03;4410328;32;20011;-85
2021/11/08 03:58:20;;;;;;;;;;;;;;;10.84;59.77;99930.81;4410163;32;20093;-86
2021/11/08 04:00:46;;;;;;;;;;;;;;;11.00;59.79;99937.28;4422894;32;20010;-86
2021/11/08 04:03:12;;;;;;;;;;;;;;;10.88;59.78;99927.22;4410767;32;20362;-86
2021/11/08 04:05:37;;;;;;;;;;;;;;;10.90;59.78;99931.50;4409707;32;20008;-84
2021/11/08 04:08:05;;;;;;;;;;;;;;;10.90;59.78;99935.88;4423360;32;19993;-85
2021/11/08 04:10:30;;;;;;;;;;;;;;;10.89;59.78;99939.37;4423459;32;20062;-87
2021/11/08 04:13:03;;;;;;;;;;;;;;;10.92;59.77;99939.28;4411074;32;19997;-87
2021/11/08 04:15:33;;;;;;;;;;;;;;;10.89;59.78;99939.37;4412274;32;19974;-87
2021/11/08 04:17:58;;;;;;;;;;;;;;;10.92;59.79;99944.47;4411680;32;20023;-86
2021/11/08 04:20:23;;;;;;;;;;;;;;;11.01;59.79;99942.44;4411064;32;20109;-85
2021/11/08 04:22:49;;;;;;;;;;;;;;;10.96;59.79;99940.87;4410866;32;19990;-85
2021/11/08 04:25:14;;;;;;;;;;;;;;;11.05;59.79;99938.84;4410082;32;20025;-85
2021/11/08 04:27:45;;;;;;;;;;;;;;;10.91;59.78;99937.56;4410412;32;19974;-87
2021/11/08 04:30:11;;;;;;;;;;;;;;;10.84;59.79;99949.03;4412067;32;20002;-89
2021/11/08 04:32:49;;;;;;;;;;;;;;;11.04;59.78;99944.09;4412102;32;19990;-88
2021/11/08 04:35:18;;;;;;;;;;;;;;;10.91;59.77;99938.44;4413656;32;19991;-87
2021/11/08 05:30:55;;;;;;;;;;;;;;;10.26;59.75;100018.38;4411970;32;20293;-87
2021/11/08 05:33:20;;;;;;;;;;;;;;;10.35;59.75;100010.31;4410478;32;30992;-88
2021/11/08 05:35:45;;;;;;;;;;;;;;;10.31;59.74;100003.50;4411640;32;20023;-88
2021/11/08 05:38:12;;;;;;;;;;;;;;;10.38;59.75;99994.63;4411267;32;20013;-88
2021/11/08 05:40:37;;;;;;;;;;;;;;;10.37;59.75;99998.09;4411090;32;19953;-88
2021/11/08 05:43:05;;;;;;;;;;;;;;;10.53;59.76;100004.62;4411643;32;20015;-88
2021/11/08 05:45:33;;;;;;;;;;;;;;;10.44;59.76;100007.47;4411829;32;20047;-87
2021/11/08 05:47:58;;;;;;;;;;;;;;;10.44;59.76;100004.88;4411061;32;20038;-85
2021/11/08 05:50:23;;;;;;;;;;;;;;;10.48;59.76;100003.03;4423739;32;21425;-85
2021/11/08 05:52:49;;;;;;;;;;;;;;;10.56;59.77;100001.06;4410467;32;20358;-85
2021/11/08 05:55:15;;;;;;;;;;;;;;;10.72;59.77;100002.34;4410528;32;20002;-85
2021/11/08 05:57:48;;;;;;;;;;;;;;;10.84;59.77;100021.97;4423947;32;20329;-86
2021/11/08 06:00:55;;;;;;;;;;;;;;;10.64;59.77;100051.16;4410841;32;20044;-85
2021/11/08 06:49:50;;;;;;;;;;;;;;;10.72;59.77;100130.78;4423172;32;20004;-86
2021/11/08 06:52:16;;;;;;;;;;;;;;;10.47;59.76;100134.91;4424356;32;19994;-86
2021/11/08 06:54:44;;;;;;;;;;;;;;;10.56;59.76;100123.41;4411371;32;19981;-87
2021/11/08 06:57:14;;;;;;;;;;;;;;;10.53;59.75;100137.34;4411710;32;19989;-86
2021/11/08 06:59:40;;;;;;;;;;;;;;;10.60;59.76;100138.03;4424117;32;20009;-86
2021/11/08 07:02:06;;;;;;;;;;;;;;;10.55;59.77;100130.34;4424119;32;20023;-86
2021/11/08 07:04:31;;;;;;;;;;;;;;;10.60;59.76;100135.44;4410069;32;20013;-86
2021/11/08 07:06:56;;;;;;;;;;;;;;;10.60;59.76;100135.44;4409618;32;20016;-86
2021/11/08 07:09:22;;;;;;;;;;;;;;;10.54;59.76;100133.00;4409371;32;29013;-86
2021/11/08 07:11:47;;;;;;;;;;;;;;;10.63;59.77;100125.78;4409739;32;19982;-86
2021/11/08 07:14:12;;;;;;;;;;;;;;;10.72;59.77;100138.59;4409919;32;20010;-86
2021/11/08 07:16:38;;;;;;;;;;;;;;;10.71;59.77;100147.31;4410534;32;20390;-86
2021/11/08 07:19:04;;;;;;;;;;;;;;;10.48;59.76;100160.03;4410033;32;19993;-86
2021/11/08 07:21:29;;;;;;;;;;;;;;;10.39;59.75;100148.09;4409860;32;19992;-86
2021/11/08 07:23:54;;;;;;;;;;;;;;;10.60;59.76;100136.28;4409942;32;20279;-86
2021/11/08 07:26:19;;;;;;;;;;;;;;;10.34;59.75;100143.91;4409202;32;25581;-85
2021/11/08 07:28:45;;;;;;;;;;;;;;;10.18;59.75;100148.63;4410141;32;20028;-85
2021/11/08 07:31:10;;;;;;;;;;;;;;;10.26;59.75;100156.25;4410214;32;19982;-86
2021/11/08 07:33:36;;;;;;;;;;;;;;;10.26;59.75;100162.31;4409923;32;19989;-86
2021/11/08 07:36:01;;;;;;;;;;;;;;;10.18;59.74;100161.63;4409898;32;20006;-86
2021/11/08 07:38:26;;;;;;;;;;;;;;;10.25;59.75;100164.97;4422616;32;20017;-86
2021/11/08 07:40:52;;;;;;;;;;;;;;;10.27;59.75;100150.16;4409308;32;27543;-86
2021/11/08 07:43:17;;;;;;;;;;;;;;;10.42;59.76;100144.59;4409728;32;19982;-86
2021/11/08 07:45:42;;;;;;;;;;;;;;;10.40;59.76;100146.34;4409968;32;20363;-86
2021/11/08 07:48:08;;;;;;;;;;;;;;;10.50;59.76;100160.88;4409248;32;25667;-86
2021/11/08 07:50:33;;;;;;;;;;;;;;;10.43;59.76;100156.72;4423728;32;20047;-86
2021/11/08 07:52:58;;;;;;;;;;;;;;;10.51;59.76;100162.56;4409755;32;19993;-85
2021/11/08 07:55:23;;;;;;;;;;;;;;;10.48;59.76;100161.78;4409612;32;20850;-86
2021/11/08 07:57:49;;;;;;;;;;;;;;;10.45;59.75;100163.59;4409191;32;27589;-86
2021/11/08 08:00:14;;;;;;;;;;;;;;;10.61;59.76;100168.38;4409797;32;20004;-86
2021/11/08 08:02:40;;;;;;;;;;;;;;;10.49;59.76;100169.56;4409169;32;22806;-85
2021/11/08 08:05:05;;;;;;;;;;;;;;;10.43;59.76;100180.13;4409917;32;20364;-86
2021/11/08 08:07:31;;;;;;;;;;;;;;;10.42;59.75;100179.28;4409817;32;20029;-85
2021/11/08 08:09:56;;;;;;;;;;;;;;;10.47;59.75;100178.31;4409452;32;20012;-86
2021/11/08 08:12:21;;;;;;;;;;;;;;;10.48;59.76;100172.22;4408980;32;23640;-85
2021/11/08 08:14:46;;;;;;;;;;;;;;;10.48;59.76;100178.25;4423876;32;20310;-86
2021/11/08 08:17:12;;;;;;;;;;;;;;;10.70;59.78;100165.56;4423683;32;20334;-86
2021/11/08 08:19:37;;;;;;;;;;;;;;;10.62;59.76;100146.66;4422137;32;20032;-86
2021/11/08 08:22:03;;;;;;;;;;;;;;;10.69;59.78;100146.50;4409593;32;20003;-86
2021/11/08 08:24:28;;;;;;;;;;;;;;;10.68;59.77;100162.16;4409561;32;20287;-86
2021/11/08 08:26:55;;;;;;;;;;;;;;;10.49;59.76;100186.94;4409410;32;20010;-85
2021/11/08 08:29:20;;;;;;;;;;;;;;;10.42;59.75;100183.63;4409593;32;20032;-85
2021/11/08 08:31:46;;;;;;;;;;;;;;;10.37;59.75;100183.72;4408472;32;28294;-86
2021/11/08 08:34:11;;;;;;;;;;;;;;;10.52;59.76;100181.66;4409195;32;20005;-85
2021/11/08 08:36:37;;;;;;;;;;;;;;;10.58;59.77;100178.88;4409186;32;20074;-86
2021/11/08 08:39:03;;;;;;;;;;;;;;;10.83;59.77;100184.31;4409080;32;19998;-86
2021/11/08 08:41:28;;;;;;;;;;;;;;;10.91;59.78;100185.00;4409323;32;19978;-86
2021/11/08 08:43:53;;;;;;;;;;;;;;;10.94;59.78;100201.38;4409042;32;19997;-85
2021/11/08 08:46:20;;;;;;;;;;;;;;;11.05;59.78;100190.66;4408525;32;26004;-85
2021/11/08 08:48:46;;;;;;;;;;;;;;;11.07;59.80;100200.16;4409053;32;19974;-86
2021/11/08 08:51:11;;;;;;;;;;;;;;;11.00;59.79;100202.97;4421519;32;20033;-85
2021/11/08 08:53:36;;;;;;;;;;;;;;;11.15;59.79;100214.75;4422912;32;19974;-85
2021/11/08 08:56:02;;;;;;;;;;;;;;;11.25;59.80;100208.38;4396528;32;20008;-86
2021/11/08 08:58:27;;;;;;;;;;;;;;;11.30;59.79;100209.09;4408931;32;20027;-86
2021/11/08 09:00:52;;;;;;;;;;;;;;;11.35;59.80;100213.28;4408942;32;20008;-86
2021/11/08 09:03:18;;;;;;;;;;;;;;;11.44;59.81;100235.66;4408970;32;19994;-86
2021/11/08 09:05:44;;;;;;;;;;;;;;;11.45;59.81;100244.31;4409192;32;19994;-86
2021/11/08 09:08:09;;;;;;;;;;;;;;;11.43;59.81;100235.69;4423549;32;19990;-86
2021/11/08 09:10:34;;;;;;;;;;;;;;;11.45;59.81;100237.34;4409250;32;19985;-85
2021/11/08 09:13:00;;;;;;;;;;;;;;;11.53;59.82;100240.59;4409170;32;20032;-86
2021/11/08 09:15:26;;;;;;;;;;;;;;;11.73;59.82;100232.19;4408271;32;20001;-86
2021/11/08 09:17:51;;;;;;;;;;;;;;;11.65;59.82;100218.53;4409266;32;20325;-86
2021/11/08 09:20:16;;;;;;;;;;;;;;;11.79;59.83;100215.53;4409106;32;20251;-85
2021/11/08 09:22:45;;;;;;;;;;;;;;;11.91;59.84;100215.19;4408645;32;23483;-86
2021/11/08 09:25:11;;;;;;;;;;;;;;;11.97;59.84;100221.06;4408893;32;20014;-85
2021/11/08 09:27:36;;;;;;;;;;;;;;;12.07;59.85;100218.22;4408645;32;20279;-85
2021/11/08 09:30:02;;;;;;;;;;;;;;;12.16;59.85;100216.16;4408748;32;20024;-85
2021/11/08 09:32:27;;;;;;;;;;;;;;;11.78;59.83;100219.03;4396022;32;20042;-85
2021/11/08 09:34:53;;;;;;;;;;;;;;;11.91;59.84;100216.06;4408078;32;25112;-85
2021/11/08 09:37:19;;;;;;;;;;;;;;;12.09;59.85;100222.47;4408472;32;20002;-85
2021/11/08 09:39:47;;;;;;;;;;;;;;;12.33;59.86;100220.84;4408774;32;19985;-85
2021/11/08 09:42:13;;;;;;;;;;;;;;;12.38;59.86;100205.91;4408579;32;20056;-84
2021/11/08 09:44:39;;;;;;;;;;;;;;;12.22;59.86;100204.66;4408875;32;19970;-86
2021/11/08 09:47:04;;;;;;;;;;;;;;;12.28;59.86;100210.53;4408547;32;20045;-86
2021/11/08 09:49:30;;;;;;;;;;;;;;;12.33;59.86;100213.03;4408802;32;19982;-85
2021/11/08 09:51:56;;;;;;;;;;;;;;;12.44;59.87;100202.22;4408870;32;20005;-85
2021/11/08 09:54:27;;;;;;;;;;;;;;;12.55;59.87;100203.59;4408927;32;19994;-86
2021/11/08 09:56:53;;;;;;;;;;;;;;;12.65;59.87;100196.31;4409401;32;20004;-86
2021/11/08 09:59:18;;;;;;;;;;;;;;;12.62;59.88;100188.56;4408659;32;20002;-86
2021/11/08 10:01:44;;;;;;;;;;;;;;;12.66;59.88;100186.72;4408727;32;19990;-86
2021/11/08 10:04:12;;;;;;;;;;;;;;;12.82;59.89;100193.97;4408760;32;20021;-85
2021/11/08 10:06:38;;;;;;;;;;;;;;;12.76;59.88;100183.72;4408518;32;19981;-85
2021/11/08 10:09:04;;;;;;;;;;;;;;;12.76;59.88;100186.31;4395710;32;20008;-85
2021/11/08 10:11:29;;;;;;;;;;;;;;;12.59;59.88;100179.09;4408304;32;19994;-86
2021/11/08 10:13:55;;;;;;;;;;;;;;;12.57;59.87;100182.66;4407915;32;20015;-85
2021/11/08 10:16:25;;;;;;;;;;;;;;;12.38;59.86;100192.00;4408208;32;20030;-86
2021/11/08 10:18:53;;;;;;;;;;;;;;;12.63;59.88;100195.50;4408297;32;20302;-86
2021/11/08 10:21:19;;;;;;;;;;;;;;;12.56;59.87;100188.78;4408062;32;19996;-86
2021/11/08 10:23:49;;;;;;;;;;;;;;;12.79;59.88;100180.19;4407990;32;20310;-85
2021/11/08 10:26:15;;;;;;;;;;;;;;;12.81;59.88;100186.19;4407836;32;20002;-85
2021/11/08 10:28:40;;;;;;;;;;;;;;;12.41;59.86;100194.50;4407955;32;20341;-85
2021/11/08 10:31:13;;;;;;;;;;;;;;;12.37;59.87;100198.97;4407951;32;19997;-85
2021/11/08 10:33:39;;;;;;;;;;;;;;;12.51;59.87;100196.75;4408083;32;19994;-86
2021/11/08 10:36:08;;;;;;;;;;;;;;;12.46;59.87;100198.66;4408159;32;19998;-86
2021/11/08 10:38:34;;;;;;;;;;;;;;;12.25;59.85;100199.34;4408316;32;20032;-85
2021/11/08 10:41:05;;;;;;;;;;;;;;;12.06;59.85;100190.38;4408063;32;20053;-84
2021/11/08 10:43:50;;;;;;;;;;;;;;;12.21;59.86;100200.34;4395156;32;19994;-85
2021/11/08 10:46:26;;;;;;;;;;;;;;;12.41;59.86;100192.75;4407565;32;20310;-85
2021/11/08 10:48:52;;;;;;;;;;;;;;;12.51;59.87;100188.91;4407697;32;19993;-86
2021/11/08 10:51:21;;;;;;;;;;;;;;;12.49;59.87;100182.03;4407641;32;19997;-86
2021/11/08 10:53:46;;;;;;;;;;;;;;;12.51;59.87;100182.84;4408096;32;20012;-86
2021/11/08 10:56:14;;;;;;;;;;;;;;;12.55;59.88;100174.88;4420862;32;20296;-85
2021/11/08 10:58:43;;;;;;;;;;;;;;;12.29;59.86;100170.47;4407930;32;19996;-86
2021/11/08 11:01:08;;;;;;;;;;;;;;;12.23;59.86;100181.12;4407654;32;19993;-85
2021/11/08 11:03:34;;;;;;;;;;;;;;;12.29;59.86;100178.31;4407114;32;19989;-85
2021/11/08 11:05:59;;;;;;;;;;;;;;;12.37;59.87;100180.69;4407362;32;19982;-85
2021/11/08 11:08:25;;;;;;;;;;;;;;;12.60;59.88;100170.34;4419950;32;19982;-85
2021/11/08 11:10:51;;;;;;;;;;;;;;;12.75;59.89;100176.78;4407175;32;21088;-85
2021/11/08 11:13:17;;;;;;;;;;;;;;;12.80;59.88;100177.50;4407376;32;20460;-85
2021/11/08 11:15:43;;;;;;;;;;;;;;;13.05;59.90;100181.88;4407353;32;19990;-85
2021/11/08 11:18:10;;;;;;;;;;;;;;;12.93;59.89;100172.69;4421321;32;19978;-86
2021/11/08 11:20:37;;;;;;;;;;;;;;;13.13;59.91;100172.00;4407589;32;19994;-84
2021/11/08 11:23:10;;;;;;;;;;;;;;;13.26;59.91;100172.47;4407409;32;19993;-85
2021/11/08 11:25:37;;;;;;;;;;;;;;;13.16;59.90;100177.13;4407990;32;20034;-85
2021/11/08 11:28:03;;;;;;;;;;;;;;;12.99;59.90;100177.69;4407345;32;19981;-85
2021/11/08 11:30:32;;;;;;;;;;;;;;;12.83;59.89;100184.38;4407283;32;20012;-85
2021/11/08 11:33:05;;;;;;;;;;;;;;;13.00;59.90;100176.78;4407103;32;20594;-85
2021/11/08 11:35:32;;;;;;;;;;;;;;;12.83;59.89;100166.09;4407082;32;19989;-86
2021/11/08 11:38:05;;;;;;;;;;;;;;;12.56;59.88;100173.13;4408068;32;20008;-85
2021/11/08 11:40:31;;;;;;;;;;;;;;;12.56;59.87;100170.50;4409356;32;19994;-85
2021/11/08 11:42:58;;;;;;;;;;;;;;;12.62;59.88;100174.66;4409268;32;20001;-85
2021/11/08 11:45:23;;;;;;;;;;;;;;;12.64;59.87;100162.41;4409449;32;20390;-85
2021/11/08 11:47:59;;;;;;;;;;;;;;;12.65;59.87;100170.19;4409083;32;19974;-86
2021/11/08 11:50:24;;;;;;;;;;;;;;;12.63;59.88;100178.97;4409403;32;19990;-85
2021/11/08 11:52:49;;;;;;;;;;;;;;;12.52;59.87;100180.16;4423248;32;19997;-86
2021/11/08 11:55:15;;;;;;;;;;;;;;;12.63;59.88;100174.59;4421726;32;20302;-85
2021/11/08 11:57:40;;;;;;;;;;;;;;;12.67;59.88;100178.81;4408650;32;20609;-85
2021/11/08 12:00:05;;;;;;;;;;;;;;;12.95;59.89;100176.09;4408554;32;25582;-85
2021/11/08 12:02:31;;;;;;;;;;;;;;;13.07;59.90;100177.44;4409074;32;20399;-86
2021/11/08 12:04:56;;;;;;;;;;;;;;;12.97;59.90;100169.06;4409092;32;19986;-85
2021/11/08 12:07:21;;;;;;;;;;;;;;;13.04;59.89;100174.94;4408810;32;20932;-85
2021/11/08 12:09:46;;;;;;;;;;;;;;;12.99;59.90;100167.25;4409411;32;19994;-85
2021/11/08 12:12:20;;;;;;;;;;;;;;;12.91;59.90;100169.28;4408563;32;26661;-85
2021/11/08 12:14:54;;;;;;;;;;;;;;;12.84;59.89;100166.03;4409393;32;19977;-85
2021/11/08 12:17:19;;;;;;;;;;;;;;;12.82;59.89;100159.16;4409325;32;20286;-85
2021/11/08 12:19:45;;;;;;;;;;;;;;;12.95;59.89;100160.44;4409083;32;19986;-86
2021/11/08 12:22:28;;;;;;;;;;;;;;;12.96;59.89;100161.28;4408939;32;20290;-85
2021/11/08 12:25:00;;;;;;;;;;;;;;;13.02;59.89;100167.16;4409397;32;19988;-85
2021/11/08 12:27:35;;;;;;;;;;;;;;;12.77;59.88;100167.13;4423085;32;19977;-85
2021/11/08 12:30:00;;;;;;;;;;;;;;;12.80;59.88;100158.38;4421856;32;20325;-86
2021/11/08 12:32:26;;;;;;;;;;;;;;;12.77;59.89;100161.91;4408899;32;20014;-85
2021/11/08 12:34:55;;;;;;;;;;;;;;;12.69;59.88;100166.56;4408723;32;20030;-85
2021/11/08 12:37:20;;;;;;;;;;;;;;;12.85;59.89;100161.66;4409018;32;20461;-85
2021/11/08 12:39:56;;;;;;;;;;;;;;;12.99;59.90;100163.78;4408527;32;20013;-85
2021/11/08 12:42:21;;;;;;;;;;;;;;;13.00;59.90;100174.19;4408637;32;20030;-85
2021/11/08 12:44:48;;;;;;;;;;;;;;;13.00;59.90;100166.34;4408017;32;28558;-85
2021/11/08 12:47:13;;;;;;;;;;;;;;;12.78;59.88;100171.50;4408837;32;20049;-85
2021/11/08 12:49:57;;;;;;;;;;;;;;;12.87;59.89;100170.31;4407555;32;20004;-86
2021/11/08 12:52:27;;;;;;;;;;;;;;;12.93;59.89;100174.47;4408929;32;20015;-85
2021/11/08 12:54:55;;;;;;;;;;;;;;;12.51;59.88;100181.06;4408817;32;19977;-85
2021/11/08 12:57:23;;;;;;;;;;;;;;;12.38;59.86;100182.41;4422981;32;19966;-85
2021/11/08 12:59:48;;;;;;;;;;;;;;;12.36;59.87;100173.75;4408924;32;20057;-85
2021/11/08 13:02:23;;;;;;;;;;;;;;;12.32;59.86;100176.53;4422996;32;20001;-85
2021/11/08 13:04:51;;;;;;;;;;;;;;;12.45;59.87;100170.00;4409088;32;19970;-85
2021/11/08 13:07:17;;;;;;;;;;;;;;;12.44;59.87;100173.50;4408675;32;20039;-85
2021/11/08 13:09:47;;;;;;;;;;;;;;;12.53;59.87;100166.22;4408684;32;19997;-85
2021/11/08 13:12:19;;;;;;;;;;;;;;;12.43;59.88;100166.56;4408764;32;19997;-86
2021/11/08 13:14:45;;;;;;;;;;;;;;;12.18;59.86;100171.75;4408750;32;20004;-85
2021/11/08 13:17:11;;;;;;;;;;;;;;;12.18;59.85;100177.81;4408642;32;20437;-85
2021/11/08 13:19:56;;;;;;;;;;;;;;;12.34;59.86;100172.97;4408425;32;20011;-85
2021/11/08 13:22:23;;;;;;;;;;;;;;;12.45;59.87;100177.81;4408772;32;20002;-85
2021/11/08 13:25:15;;;;;;;;;;;;;;;12.48;59.87;100170.72;4408470;32;19993;-85
2021/11/08 13:27:45;;;;;;;;;;;;;;;12.47;59.87;100166.41;4397707;32;20023;-85
2021/11/08 13:30:10;;;;;;;;;;;;;;;12.49;59.87;100176.81;4408718;32;19986;-85
2021/11/08 13:32:35;;;;;;;;;;;;;;;12.56;59.87;100173.97;4408391;32;20005;-85
2021/11/08 13:35:15;;;;;;;;;;;;;;;12.55;59.87;100174.03;4408662;32;20361;-85
2021/11/08 13:37:41;;;;;;;;;;;;;;;12.62;59.88;100175.50;4395987;32;20001;-85
2021/11/08 13:40:14;;;;;;;;;;;;;;;12.59;59.88;100178.22;4408703;32;19986;-85
2021/11/08 13:42:39;;;;;;;;;;;;;;;12.68;59.88;100190.97;4409087;32;19985;-85
2021/11/08 13:45:04;;;;;;;;;;;;;;;12.57;59.87;100195.72;4408017;32;32903;-85
2021/11/08 13:47:37;;;;;;;;;;;;;;;12.60;59.88;100199.06;4408374;32;19990;-86
2021/11/08 13:50:12;;;;;;;;;;;;;;;12.59;59.88;100197.38;4422681;32;20001;-85
2021/11/08 13:52:38;;;;;;;;;;;;;;;12.58;59.88;100206.09;4408498;32;20066;-85
2021/11/08 13:55:07;;;;;;;;;;;;;;;12.46;59.87;100210.84;4408193;32;19990;-85
2021/11/08 13:57:32;;;;;;;;;;;;;;;12.17;59.86;100209.19;4408239;32;20000;-85
2021/11/08 13:59:57;;;;;;;;;;;;;;;12.33;59.86;100220.00;4407320;32;20040;-85
2021/11/08 14:02:23;;;;;;;;;;;;;;;12.33;59.86;100220.84;4408098;32;19994;-85
2021/11/08 14:04:50;;;;;;;;;;;;;;;12.22;59.86;100215.97;4408338;32;20714;-86
2021/11/08 14:07:17;;;;;;;;;;;;;;;12.25;59.86;100220.22;4408328;32;20330;-85
2021/11/08 14:09:42;;;;;;;;;;;;;;;12.16;59.86;100205.72;4408136;32;20038;-85
2021/11/08 14:12:08;;;;;;;;;;;;;;;12.29;59.87;100207.03;4408067;32;19990;-85
2021/11/08 14:14:38;;;;;;;;;;;;;;;12.38;59.87;100210.25;4408004;32;19978;-85
2021/11/08 14:17:10;;;;;;;;;;;;;;;12.27;59.85;100216.66;4408470;32;20023;-85
2021/11/08 14:19:35;;;;;;;;;;;;;;;12.28;59.86;100215.75;4422203;32;19986;-85
2021/11/08 14:22:00;;;;;;;;;;;;;;;12.28;59.85;100217.50;4407935;32;20019;-85